sensor_id;sensor_type;location;lat;lon;timestamp;pressure;altitude;pressure_sealevel;temperature;humidity
23643;BME280;11998;55.788;37.572;2023-08-01T00:00:07;98030.75;;;87.79;13.71
23643;BME280;11998;55.788;37.572;2023-08-01T00:01:08;98026.09;;;87.31;13.79
23643;BME280;11998;55.788;37.572;2023-08-01T00:02:09;98028.06;;;86.08;13.72
23643;BME280;11998;55.788;37.572;2023-08-01T00:03:09;98027.63;;;86.63;14.02
23643;BME280;11998;55.788;37.572;2023-08-01T00:04:10;98031.66;;;87.04;13.78
23643;BME280;11998;55.788;37.572;2023-08-01T00:05:10;98032.59;;;87.67;13.77
23643;BME280;11998;55.788;37.572;2023-08-01T00:06:11;98025.31;;;88.01;13.92
23643;BME280;11998;55.788;37.572;2023-08-01T00:07:11;98032.28;;;87.10;13.83
23643;BME280;11998;55.788;37.572;2023-08-01T00:08:12;98038.09;;;87.86;13.60
23643;BME280;11998;55.788;37.572;2023-08-01T00:09:13;98041.00;;;88.01;13.94
23643;BME280;11998;55.788;37.572;2023-08-01T00:10:13;98037.53;;;88.60;13.48
23643;BME280;11998;55.788;37.572;2023-08-01T00:11:14;98038.53;;;88.23;13.80
23643;BME280;11998;55.788;37.572;2023-08-01T00:12:16;98037.13;;;88.56;13.72
23643;BME280;11998;55.788;37.572;2023-08-01T00:13:16;98031.25;;;88.41;13.76
23643;BME280;11998;55.788;37.572;2023-08-01T00:14:17;98047.03;;;88.66;13.91
23643;BME280;11998;55.788;37.572;2023-08-01T00:15:19;98047.94;;;88.77;13.71
23643;BME280;11998;55.788;37.572;2023-08-01T00:16:20;98050.06;;;89.34;13.88
23643;BME280;11998;55.788;37.572;2023-08-01T00:17:20;98046.69;;;89.12;13.65
23643;BME280;11998;55.788;37.572;2023-08-01T00:18:21;98043.41;;;89.43;13.60
23643;BME280;11998;55.788;37.572;2023-08-01T00:19:21;98054.94;;;89.46;13.70
23643;BME280;11998;55.788;37.572;2023-08-01T00:20:22;98054.50;;;89.50;13.48
23643;BME280;11998;55.788;37.572;2023-08-01T00:21:22;98043.38;;;89.26;13.67
23643;BME280;11998;55.788;37.572;2023-08-01T00:22:23;98047.97;;;89.44;13.64
23643;BME280;11998;55.788;37.572;2023-08-01T00:23:24;98053.94;;;89.44;13.63
23643;BME280;11998;55.788;37.572;2023-08-01T00:24:25;98032.47;;;87.12;13.95
23643;BME280;11998;55.788;37.572;2023-08-01T00:25:25;98034.03;;;87.28;13.68
23643;BME280;11998;55.788;37.572;2023-08-01T00:26:26;98030.88;;;88.94;13.49
23643;BME280;11998;55.788;37.572;2023-08-01T00:27:26;98038.13;;;89.51;13.74
23643;BME280;11998;55.788;37.572;2023-08-01T00:28:27;98042.19;;;89.63;13.45
23643;BME280;11998;55.788;37.572;2023-08-01T00:29:28;98044.66;;;88.90;13.58
23643;BME280;11998;55.788;37.572;2023-08-01T00:30:28;98031.59;;;87.65;13.67
23643;BME280;11998;55.788;37.572;2023-08-01T00:31:28;98036.09;;;87.81;13.73
23643;BME280;11998;55.788;37.572;2023-08-01T00:32:29;98035.72;;;88.57;13.69
23643;BME280;11998;55.788;37.572;2023-08-01T00:33:29;98031.78;;;88.22;13.91
23643;BME280;11998;55.788;37.572;2023-08-01T00:34:30;98033.69;;;88.92;13.71
23643;BME280;11998;55.788;37.572;2023-08-01T00:35:30;98036.22;;;89.63;13.66
23643;BME280;11998;55.788;37.572;2023-08-01T00:36:31;98051.47;;;90.19;13.65
23643;BME280;11998;55.788;37.572;2023-08-01T00:37:32;98053.72;;;90.28;13.54
23643;BME280;11998;55.788;37.572;2023-08-01T00:38:32;98055.31;;;90.29;13.55
23643;BME280;11998;55.788;37.572;2023-08-01T00:39:33;98045.19;;;89.81;13.49
23643;BME280;11998;55.788;37.572;2023-08-01T00:40:33;98043.59;;;89.03;13.71
23643;BME280;11998;55.788;37.572;2023-08-01T00:41:34;98044.09;;;89.34;13.87
23643;BME280;11998;55.788;37.572;2023-08-01T00:42:38;98050.28;;;89.88;13.69
23643;BME280;11998;55.788;37.572;2023-08-01T00:43:38;98043.53;;;89.10;13.76
23643;BME280;11998;55.788;37.572;2023-08-01T00:44:39;98054.47;;;90.46;13.42
23643;BME280;11998;55.788;37.572;2023-08-01T00:45:39;98061.06;;;91.08;13.60
23643;BME280;11998;55.788;37.572;2023-08-01T00:46:40;98069.38;;;91.66;13.62
23643;BME280;11998;55.788;37.572;2023-08-01T00:47:40;98079.97;;;91.96;13.55
23643;BME280;11998;55.788;37.572;2023-08-01T00:48:41;98072.06;;;92.00;13.61
23643;BME280;11998;55.788;37.572;2023-08-01T00:49:42;98072.09;;;92.10;13.33
23643;BME280;11998;55.788;37.572;2023-08-01T00:50:42;98074.44;;;92.12;13.73
23643;BME280;11998;55.788;37.572;2023-08-01T00:51:43;98077.22;;;92.48;13.35
23643;BME280;11998;55.788;37.572;2023-08-01T00:52:44;98074.13;;;91.88;13.47
23643;BME280;11998;55.788;37.572;2023-08-01T00:53:45;98056.78;;;91.58;13.51
23643;BME280;11998;55.788;37.572;2023-08-01T00:54:48;98059.44;;;91.63;13.55
23643;BME280;11998;55.788;37.572;2023-08-01T00:55:53;98063.22;;;91.44;13.62
23643;BME280;11998;55.788;37.572;2023-08-01T00:56:54;98057.00;;;90.50;13.61
23643;BME280;11998;55.788;37.572;2023-08-01T00:57:55;98043.66;;;89.37;13.84
23643;BME280;11998;55.788;37.572;2023-08-01T00:58:58;98043.03;;;89.21;13.51
23643;BME280;11998;55.788;37.572;2023-08-01T00:59:59;98031.19;;;87.61;14.01
23643;BME280;11998;55.788;37.572;2023-08-01T01:00:59;98020.34;;;87.96;13.92
23643;BME280;11998;55.788;37.572;2023-08-01T01:02:00;98028.19;;;88.56;13.78
23643;BME280;11998;55.788;37.572;2023-08-01T01:03:01;98031.66;;;88.95;13.83
23643;BME280;11998;55.788;37.572;2023-08-01T01:04:01;98039.13;;;89.11;13.97
23643;BME280;11998;55.788;37.572;2023-08-01T01:05:02;98022.16;;;87.91;13.91
23643;BME280;11998;55.788;37.572;2023-08-01T01:06:13;98025.41;;;87.70;13.99
23643;BME280;11998;55.788;37.572;2023-08-01T01:07:16;98032.38;;;87.73;13.87
23643;BME280;11998;55.788;37.572;2023-08-01T01:08:17;98024.88;;;87.41;13.97
23643;BME280;11998;55.788;37.572;2023-08-01T01:09:19;98032.75;;;87.77;13.91
23643;BME280;11998;55.788;37.572;2023-08-01T01:10:20;98038.81;;;88.42;13.67
23643;BME280;11998;55.788;37.572;2023-08-01T01:11:21;98045.50;;;89.08;13.73
23643;BME280;11998;55.788;37.572;2023-08-01T01:12:21;98041.06;;;89.16;13.64
23643;BME280;11998;55.788;37.572;2023-08-01T01:13:22;98048.44;;;88.65;13.70
23643;BME280;11998;55.788;37.572;2023-08-01T01:14:22;98034.78;;;87.67;13.72
23643;BME280;11998;55.788;37.572;2023-08-01T01:15:23;98033.63;;;87.01;13.82
23643;BME280;11998;55.788;37.572;2023-08-01T01:16:23;98043.03;;;87.91;13.63
23643;BME280;11998;55.788;37.572;2023-08-01T01:17:24;98039.59;;;89.00;13.47
23643;BME280;11998;55.788;37.572;2023-08-01T01:18:24;98039.97;;;88.79;13.71
23643;BME280;11998;55.788;37.572;2023-08-01T01:19:25;98053.00;;;88.66;13.71
23643;BME280;11998;55.788;37.572;2023-08-01T01:20:25;98048.41;;;88.33;13.68
23643;BME280;11998;55.788;37.572;2023-08-01T01:21:26;98042.03;;;88.36;13.86
23643;BME280;11998;55.788;37.572;2023-08-01T01:22:27;98043.31;;;88.18;13.54
23643;BME280;11998;55.788;37.572;2023-08-01T01:23:28;98048.63;;;88.68;13.46
23643;BME280;11998;55.788;37.572;2023-08-01T01:24:30;98041.88;;;87.79;13.76
23643;BME280;11998;55.788;37.572;2023-08-01T01:25:32;98041.72;;;88.25;13.58
23643;BME280;11998;55.788;37.572;2023-08-01T01:26:34;98039.81;;;88.04;13.73
23643;BME280;11998;55.788;37.572;2023-08-01T01:27:37;98036.28;;;87.83;13.75
23643;BME280;11998;55.788;37.572;2023-08-01T01:28:38;98048.25;;;89.13;13.51
23643;BME280;11998;55.788;37.572;2023-08-01T01:29:40;98053.41;;;89.55;13.67
23643;BME280;11998;55.788;37.572;2023-08-01T01:30:42;98056.06;;;89.68;13.57
23643;BME280;11998;55.788;37.572;2023-08-01T01:31:43;98061.25;;;89.68;13.69
23643;BME280;11998;55.788;37.572;2023-08-01T01:32:45;98053.34;;;89.03;13.60
23643;BME280;11998;55.788;37.572;2023-08-01T01:33:46;98056.00;;;89.16;13.74
23643;BME280;11998;55.788;37.572;2023-08-01T01:34:46;98053.84;;;88.59;13.94
23643;BME280;11998;55.788;37.572;2023-08-01T01:35:47;98053.88;;;89.09;13.48
23643;BME280;11998;55.788;37.572;2023-08-01T01:36:48;98047.03;;;89.16;13.62
23643;BME280;11998;55.788;37.572;2023-08-01T01:37:48;98046.00;;;88.39;13.68
23643;BME280;11998;55.788;37.572;2023-08-01T01:38:49;98047.81;;;89.17;13.57
23643;BME280;11998;55.788;37.572;2023-08-01T01:39:50;98055.69;;;89.30;13.78
23643;BME280;11998;55.788;37.572;2023-08-01T01:40:50;98045.47;;;87.85;13.97
23643;BME280;11998;55.788;37.572;2023-08-01T01:41:51;98038.72;;;87.77;13.63
23643;BME280;11998;55.788;37.572;2023-08-01T01:42:51;98046.81;;;88.97;13.76
23643;BME280;11998;55.788;37.572;2023-08-01T01:43:52;98047.72;;;89.67;13.45
23643;BME280;11998;55.788;37.572;2023-08-01T01:44:52;98053.22;;;89.36;13.82
23643;BME280;11998;55.788;37.572;2023-08-01T01:45:53;98056.06;;;89.68;13.51
23643;BME280;11998;55.788;37.572;2023-08-01T01:46:54;98066.00;;;90.50;13.42
23643;BME280;11998;55.788;37.572;2023-08-01T01:47:54;98070.72;;;90.80;13.36
23643;BME280;11998;55.788;37.572;2023-08-01T01:48:55;98073.41;;;91.22;13.48
23643;BME280;11998;55.788;37.572;2023-08-01T01:49:55;98077.91;;;91.04;13.55
23643;BME280;11998;55.788;37.572;2023-08-01T01:50:56;98074.81;;;91.31;13.59
23643;BME280;11998;55.788;37.572;2023-08-01T01:51:56;98082.50;;;91.05;13.74
23643;BME280;11998;55.788;37.572;2023-08-01T01:52:57;98074.63;;;90.19;13.61
23643;BME280;11998;55.788;37.572;2023-08-01T01:53:57;98057.09;;;89.29;13.80
23643;BME280;11998;55.788;37.572;2023-08-01T01:54:58;98057.75;;;88.70;13.74
23643;BME280;11998;55.788;37.572;2023-08-01T01:55:59;98046.03;;;88.97;13.86
23643;BME280;11998;55.788;37.572;2023-08-01T01:56:59;98051.56;;;89.42;13.63
23643;BME280;11998;55.788;37.572;2023-08-01T01:58:00;98043.19;;;88.41;13.97
23643;BME280;11998;55.788;37.572;2023-08-01T01:59:00;98049.19;;;88.99;13.59
23643;BME280;11998;55.788;37.572;2023-08-01T02:00:01;98043.28;;;88.91;13.64
23643;BME280;11998;55.788;37.572;2023-08-01T02:01:01;98046.59;;;88.95;13.79
23643;BME280;11998;55.788;37.572;2023-08-01T02:02:02;98058.66;;;90.16;13.58
23643;BME280;11998;55.788;37.572;2023-08-01T02:03:04;98064.81;;;90.18;13.77
23643;BME280;11998;55.788;37.572;2023-08-01T02:04:04;98060.06;;;89.71;13.68
23643;BME280;11998;55.788;37.572;2023-08-01T02:05:05;98059.41;;;89.90;13.58
23643;BME280;11998;55.788;37.572;2023-08-01T02:06:06;98058.72;;;89.64;13.61
23643;BME280;11998;55.788;37.572;2023-08-01T02:07:06;98050.31;;;88.53;13.84
23643;BME280;11998;55.788;37.572;2023-08-01T02:08:07;98045.94;;;88.14;13.97
23643;BME280;11998;55.788;37.572;2023-08-01T02:09:08;98043.53;;;88.53;13.81
23643;BME280;11998;55.788;37.572;2023-08-01T02:10:09;98053.19;;;89.18;13.46
23643;BME280;11998;55.788;37.572;2023-08-01T02:11:09;98041.72;;;88.25;13.82
23643;BME280;11998;55.788;37.572;2023-08-01T02:12:10;98042.44;;;88.33;13.72
23643;BME280;11998;55.788;37.572;2023-08-01T02:13:14;98047.88;;;88.59;13.86
23643;BME280;11998;55.788;37.572;2023-08-01T02:14:14;98045.78;;;89.19;13.55
23643;BME280;11998;55.788;37.572;2023-08-01T02:15:15;98056.25;;;89.88;13.78
23643;BME280;11998;55.788;37.572;2023-08-01T02:16:15;98047.78;;;89.25;13.46
23643;BME280;11998;55.788;37.572;2023-08-01T02:17:16;98052.56;;;89.62;13.50
23643;BME280;11998;55.788;37.572;2023-08-01T02:18:16;98050.78;;;89.76;13.77
23643;BME280;11998;55.788;37.572;2023-08-01T02:19:17;98056.16;;;89.95;13.77
23643;BME280;11998;55.788;37.572;2023-08-01T02:20:17;98063.81;;;89.89;13.57
23643;BME280;11998;55.788;37.572;2023-08-01T02:21:18;98063.00;;;90.77;13.59
23643;BME280;11998;55.788;37.572;2023-08-01T02:22:18;98072.69;;;90.95;13.48
23643;BME280;11998;55.788;37.572;2023-08-01T02:23:19;98074.50;;;90.80;13.64
23643;BME280;11998;55.788;37.572;2023-08-01T02:24:19;98069.69;;;90.95;13.52
23643;BME280;11998;55.788;37.572;2023-08-01T02:25:20;98076.06;;;90.45;13.43
23643;BME280;11998;55.788;37.572;2023-08-01T02:26:20;98065.22;;;90.32;13.66
23643;BME280;11998;55.788;37.572;2023-08-01T02:27:23;98077.19;;;90.32;13.67
23643;BME280;11998;55.788;37.572;2023-08-01T02:28:24;98069.34;;;90.10;13.61
23643;BME280;11998;55.788;37.572;2023-08-01T02:29:24;98064.78;;;89.74;13.55
23643;BME280;11998;55.788;37.572;2023-08-01T02:30:25;98069.22;;;90.34;13.55
23643;BME280;11998;55.788;37.572;2023-08-01T02:31:25;98077.66;;;90.46;13.39
23643;BME280;11998;55.788;37.572;2023-08-01T02:32:26;98073.28;;;90.83;13.69
23643;BME280;11998;55.788;37.572;2023-08-01T02:33:26;98068.53;;;90.26;13.67
23643;BME280;11998;55.788;37.572;2023-08-01T02:34:27;98063.25;;;90.17;13.46
23643;BME280;11998;55.788;37.572;2023-08-01T02:35:28;98070.09;;;90.27;13.85
23643;BME280;11998;55.788;37.572;2023-08-01T02:36:29;98056.06;;;89.68;13.60
23643;BME280;11998;55.788;37.572;2023-08-01T02:37:29;98062.44;;;90.34;13.35
23643;BME280;11998;55.788;37.572;2023-08-01T02:38:30;98053.25;;;90.05;13.59
23643;BME280;11998;55.788;37.572;2023-08-01T02:39:30;98068.00;;;90.38;13.55
23643;BME280;11998;55.788;37.572;2023-08-01T02:40:31;98061.59;;;90.06;13.68
23643;BME280;11998;55.788;37.572;2023-08-01T02:41:31;98064.78;;;90.36;13.55
23643;BME280;11998;55.788;37.572;2023-08-01T02:42:32;98061.09;;;90.45;13.52
23643;BME280;11998;55.788;37.572;2023-08-01T02:43:32;98053.47;;;90.61;13.60
23643;BME280;11998;55.788;37.572;2023-08-01T02:44:35;98068.09;;;90.84;13.59
23643;BME280;11998;55.788;37.572;2023-08-01T02:45:35;98065.53;;;90.80;13.69
23643;BME280;11998;55.788;37.572;2023-08-01T02:46:36;98063.16;;;91.15;13.43
23643;BME280;11998;55.788;37.572;2023-08-01T02:47:36;98063.41;;;91.00;13.39
23643;BME280;11998;55.788;37.572;2023-08-01T02:48:37;98066.28;;;91.17;13.62
23643;BME280;11998;55.788;37.572;2023-08-01T02:49:37;98070.44;;;91.41;13.48
23643;BME280;11998;55.788;37.572;2023-08-01T02:50:38;98064.03;;;91.74;13.33
23643;BME280;11998;55.788;37.572;2023-08-01T02:51:38;98080.13;;;91.88;13.54
23643;BME280;11998;55.788;37.572;2023-08-01T02:52:39;98075.25;;;91.73;13.42
23643;BME280;11998;55.788;37.572;2023-08-01T02:53:40;98073.19;;;91.57;13.44
23643;BME280;11998;55.788;37.572;2023-08-01T02:54:41;98071.44;;;90.98;13.75
23643;BME280;11998;55.788;37.572;2023-08-01T02:55:42;98071.88;;;91.40;13.46
23643;BME280;11998;55.788;37.572;2023-08-01T02:56:43;98075.03;;;91.42;13.46
23643;BME280;11998;55.788;37.572;2023-08-01T02:57:44;98076.78;;;91.65;13.42
23643;BME280;11998;55.788;37.572;2023-08-01T02:58:44;98074.88;;;91.50;13.63
23643;BME280;11998;55.788;37.572;2023-08-01T02:59:45;98084.19;;;91.44;13.67
23643;BME280;11998;55.788;37.572;2023-08-01T03:00:45;98076.25;;;91.30;13.37
23643;BME280;11998;55.788;37.572;2023-08-01T03:01:47;98075.66;;;91.51;13.50
23643;BME280;11998;55.788;37.572;2023-08-01T03:02:48;98077.06;;;91.40;13.39
23643;BME280;11998;55.788;37.572;2023-08-01T03:03:48;98082.59;;;91.43;13.58
23643;BME280;11998;55.788;37.572;2023-08-01T03:04:49;98075.00;;;91.23;13.54
23643;BME280;11998;55.788;37.572;2023-08-01T03:05:49;98070.72;;;90.80;13.54
23643;BME280;11998;55.788;37.572;2023-08-01T03:06:50;98080.47;;;91.07;13.46
23643;BME280;11998;55.788;37.572;2023-08-01T03:07:50;98075.84;;;91.62;13.33
23643;BME280;11998;55.788;37.572;2023-08-01T03:08:51;98085.44;;;91.41;13.48
23643;BME280;11998;55.788;37.572;2023-08-01T03:09:51;98084.53;;;91.87;13.57
23643;BME280;11998;55.788;37.572;2023-08-01T03:10:53;98084.53;;;91.87;13.39
23643;BME280;11998;55.788;37.572;2023-08-01T03:11:54;98087.38;;;91.85;13.47
23643;BME280;11998;55.788;37.572;2023-08-01T03:12:55;98082.19;;;91.86;13.41
23643;BME280;11998;55.788;37.572;2023-08-01T03:13:55;98086.13;;;91.88;13.47
23643;BME280;11998;55.788;37.572;2023-08-01T03:14:56;98082.34;;;91.78;13.41
23643;BME280;11998;55.788;37.572;2023-08-01T03:15:56;98086.13;;;92.08;13.39
23643;BME280;11998;55.788;37.572;2023-08-01T03:16:57;98087.56;;;91.97;13.45
23643;BME280;11998;55.788;37.572;2023-08-01T03:17:57;98079.50;;;91.61;13.62
23643;BME280;11998;55.788;37.572;2023-08-01T03:18:58;98093.22;;;92.03;13.69
23643;BME280;11998;55.788;37.572;2023-08-01T03:20:04;98083.13;;;92.08;13.57
23643;BME280;11998;55.788;37.572;2023-08-01T03:21:05;98091.94;;;92.35;13.39
23643;BME280;11998;55.788;37.572;2023-08-01T03:22:06;98086.44;;;92.31;13.60
23643;BME280;11998;55.788;37.572;2023-08-01T03:23:07;98089.59;;;92.14;13.39
23643;BME280;11998;55.788;37.572;2023-08-01T03:24:08;98088.59;;;92.40;13.56
23643;BME280;11998;55.788;37.572;2023-08-01T03:25:08;98085.28;;;92.26;13.58
23643;BME280;11998;55.788;37.572;2023-08-01T03:26:09;98089.25;;;92.29;13.62
23643;BME280;11998;55.788;37.572;2023-08-01T03:27:10;98086.25;;;92.29;13.60
23643;BME280;11998;55.788;37.572;2023-08-01T03:28:10;98096.22;;;92.22;13.47
23643;BME280;11998;55.788;37.572;2023-08-01T03:29:11;98086.44;;;92.31;13.51
23643;BME280;11998;55.788;37.572;2023-08-01T03:30:12;98086.72;;;92.35;13.43
23643;BME280;11998;55.788;37.572;2023-08-01T03:31:12;98089.09;;;92.27;13.30
23643;BME280;11998;55.788;37.572;2023-08-01T03:32:13;98089.72;;;92.25;13.37
23643;BME280;11998;55.788;37.572;2023-08-01T03:33:13;98090.47;;;92.45;13.43
23643;BME280;11998;55.788;37.572;2023-08-01T03:34:14;98090.47;;;92.45;13.43
23643;BME280;11998;55.788;37.572;2023-08-01T03:35:14;98099.28;;;92.63;13.50
23643;BME280;11998;55.788;37.572;2023-08-01T03:36:15;98097.78;;;92.83;13.23
23643;BME280;11998;55.788;37.572;2023-08-01T03:37:16;98093.66;;;92.47;13.66
23643;BME280;11998;55.788;37.572;2023-08-01T03:38:17;98098.84;;;92.97;13.52
23643;BME280;11998;55.788;37.572;2023-08-01T03:39:17;98104.84;;;92.97;13.28
23643;BME280;11998;55.788;37.572;2023-08-01T03:40:18;98096.75;;;92.69;13.59
23643;BME280;11998;55.788;37.572;2023-08-01T03:41:20;98090.16;;;92.41;13.31
23643;BME280;11998;55.788;37.572;2023-08-01T03:42:20;98099.34;;;92.43;13.57
23643;BME280;11998;55.788;37.572;2023-08-01T03:43:21;98102.94;;;92.51;13.42
23643;BME280;11998;55.788;37.572;2023-08-01T03:44:23;98101.88;;;92.37;13.62
23643;BME280;11998;55.788;37.572;2023-08-01T03:45:24;98101.16;;;92.68;13.48
23643;BME280;11998;55.788;37.572;2023-08-01T03:46:25;98103.66;;;92.11;13.43
23643;BME280;11998;55.788;37.572;2023-08-01T03:47:26;98099.38;;;92.05;13.57
23643;BME280;11998;55.788;37.572;2023-08-01T03:48:26;98090.53;;;92.16;13.37
23643;BME280;11998;55.788;37.572;2023-08-01T03:49:26;98102.66;;;92.38;13.55
23643;BME280;11998;55.788;37.572;2023-08-01T03:50:27;98100.00;;;92.32;13.43
23643;BME280;11998;55.788;37.572;2023-08-01T03:51:27;98100.44;;;92.38;13.46
23643;BME280;11998;55.788;37.572;2023-08-01T03:52:28;98101.47;;;92.72;13.31
23643;BME280;11998;55.788;37.572;2023-08-01T03:53:29;98103.56;;;93.00;13.15
23643;BME280;11998;55.788;37.572;2023-08-01T03:54:29;98102.59;;;93.07;13.48
23643;BME280;11998;55.788;37.572;2023-08-01T03:55:30;98112.22;;;93.37;13.14
23643;BME280;11998;55.788;37.572;2023-08-01T03:56:31;98123.94;;;93.54;13.22
23643;BME280;11998;55.788;37.572;2023-08-01T03:57:31;98118.97;;;93.68;13.29
23643;BME280;11998;55.788;37.572;2023-08-01T03:58:34;98120.91;;;93.85;13.30
23643;BME280;11998;55.788;37.572;2023-08-01T03:59:34;98127.03;;;94.09;13.04
23643;BME280;11998;55.788;37.572;2023-08-01T04:00:35;98124.81;;;94.54;13.28
23643;BME280;11998;55.788;37.572;2023-08-01T04:01:35;98133.53;;;94.95;13.43
23643;BME280;11998;55.788;37.572;2023-08-01T04:02:36;98136.13;;;95.12;13.36
23643;BME280;11998;55.788;37.572;2023-08-01T04:03:37;98143.09;;;95.75;13.54
23643;BME280;11998;55.788;37.572;2023-08-01T04:04:37;98153.28;;;95.94;13.06
23643;BME280;11998;55.788;37.572;2023-08-01T04:05:38;98148.47;;;96.39;13.10
23643;BME280;11998;55.788;37.572;2023-08-01T04:06:38;98164.44;;;97.07;13.07
23643;BME280;11998;55.788;37.572;2023-08-01T04:07:39;98162.59;;;97.56;13.04
23643;BME280;11998;55.788;37.572;2023-08-01T04:08:39;98166.56;;;98.02;13.16
23643;BME280;11998;55.788;37.572;2023-08-01T04:09:40;98162.94;;;98.51;13.20
23643;BME280;11998;55.788;37.572;2023-08-01T04:10:40;98161.81;;;98.90;13.14
23643;BME280;11998;55.788;37.572;2023-08-01T04:11:41;98171.53;;;99.36;12.64
23643;BME280;11998;55.788;37.572;2023-08-01T04:12:41;98164.38;;;99.63;12.72
23643;BME280;11998;55.788;37.572;2023-08-01T04:13:43;98168.56;;;100.60;12.75
23643;BME280;11998;55.788;37.572;2023-08-01T04:14:43;98172.19;;;100.95;13.11
23643;BME280;11998;55.788;37.572;2023-08-01T04:15:44;98167.72;;;101.37;12.99
23643;BME280;11998;55.788;37.572;2023-08-01T04:16:45;98173.34;;;101.67;12.92
23643;BME280;11998;55.788;37.572;2023-08-01T04:17:45;98164.06;;;101.85;12.86
23643;BME280;11998;55.788;37.572;2023-08-01T04:18:46;98155.34;;;102.19;12.77
23643;BME280;11998;55.788;37.572;2023-08-01T04:19:46;98162.38;;;102.73;12.71
23643;BME280;11998;55.788;37.572;2023-08-01T04:20:47;98163.53;;;103.12;12.78
23643;BME280;11998;55.788;37.572;2023-08-01T04:21:47;98157.03;;;103.24;13.03
23643;BME280;11998;55.788;37.572;2023-08-01T04:22:48;98163.03;;;103.48;12.60
23643;BME280;11998;55.788;37.572;2023-08-01T04:23:48;98157.13;;;103.84;12.80
23643;BME280;11998;55.788;37.572;2023-08-01T04:24:49;98159.56;;;104.21;12.77
23643;BME280;11998;55.788;37.572;2023-08-01T04:25:50;98154.53;;;104.02;12.97
23643;BME280;11998;55.788;37.572;2023-08-01T04:26:51;98156.09;;;104.03;12.67
23643;BME280;11998;55.788;37.572;2023-08-01T04:27:52;98149.53;;;104.49;12.79
23643;BME280;11998;55.788;37.572;2023-08-01T04:28:53;98141.56;;;104.70;12.39
23643;BME280;11998;55.788;37.572;2023-08-01T04:29:55;98148.81;;;105.25;12.83
23643;BME280;11998;55.788;37.572;2023-08-01T04:30:55;98136.41;;;105.59;12.47
23643;BME280;11998;55.788;37.572;2023-08-01T04:31:56;98158.34;;;105.90;12.46
23643;BME280;11998;55.788;37.572;2023-08-01T04:32:57;98138.69;;;106.05;12.29
23643;BME280;11998;55.788;37.572;2023-08-01T04:33:57;98139.75;;;105.73;12.76
23643;BME280;11998;55.788;37.572;2023-08-01T04:34:58;98143.84;;;106.44;13.08
23643;BME280;11998;55.788;37.572;2023-08-01T04:35:58;98140.78;;;107.07;12.75
23643;BME280;11998;55.788;37.572;2023-08-01T04:36:59;98135.91;;;107.59;12.73
23643;BME280;11998;55.788;37.572;2023-08-01T04:38:00;98131.69;;;108.08;12.68
23643;BME280;11998;55.788;37.572;2023-08-01T04:39:00;98134.13;;;108.41;12.39
23643;BME280;11998;55.788;37.572;2023-08-01T04:40:01;98130.47;;;108.95;12.50
23643;BME280;11998;55.788;37.572;2023-08-01T04:41:02;98129.72;;;109.33;12.31
23643;BME280;11998;55.788;37.572;2023-08-01T04:42:03;98116.66;;;109.57;12.61
23643;BME280;11998;55.788;37.572;2023-08-01T04:43:04;98124.25;;;109.99;12.28
23643;BME280;11998;55.788;37.572;2023-08-01T04:44:04;98119.47;;;110.39;12.40
23643;BME280;11998;55.788;37.572;2023-08-01T04:45:05;98116.25;;;110.65;12.07
23643;BME280;11998;55.788;37.572;2023-08-01T04:46:07;98113.50;;;109.94;12.18
23643;BME280;11998;55.788;37.572;2023-08-01T04:47:07;98114.63;;;110.76;12.50
23643;BME280;11998;55.788;37.572;2023-08-01T04:48:08;98118.97;;;111.16;12.50
23643;BME280;11998;55.788;37.572;2023-08-01T04:49:08;98115.63;;;111.47;12.44
23643;BME280;11998;55.788;37.572;2023-08-01T04:50:09;98109.00;;;111.87;12.77
23643;BME280;11998;55.788;37.572;2023-08-01T04:51:10;98110.00;;;110.77;12.37
23643;BME280;11998;55.788;37.572;2023-08-01T04:52:10;98096.94;;;111.63;12.79
23643;BME280;11998;55.788;37.572;2023-08-01T04:53:11;98096.59;;;111.91;12.26
23643;BME280;11998;55.788;37.572;2023-08-01T04:54:11;98108.03;;;112.59;12.36
23643;BME280;11998;55.788;37.572;2023-08-01T04:55:12;98102.06;;;112.94;12.49
23643;BME280;11998;55.788;37.572;2023-08-01T04:56:12;98085.66;;;113.03;12.69
23643;BME280;11998;55.788;37.572;2023-08-01T04:57:13;98089.97;;;113.23;12.48
23643;BME280;11998;55.788;37.572;2023-08-01T04:58:13;98087.03;;;113.93;12.42
23643;BME280;11998;55.788;37.572;2023-08-01T04:59:14;98086.44;;;114.20;12.54
23643;BME280;11998;55.788;37.572;2023-08-01T05:00:15;98078.16;;;114.43;12.28
23643;BME280;11998;55.788;37.572;2023-08-01T05:01:15;98078.28;;;114.37;12.34
23643;BME280;11998;55.788;37.572;2023-08-01T05:02:16;98073.00;;;114.31;12.57
23643;BME280;11998;55.788;37.572;2023-08-01T05:03:16;98062.53;;;114.47;12.40
23643;BME280;11998;55.788;37.572;2023-08-01T05:04:17;98061.03;;;114.46;12.69
23643;BME280;11998;55.788;37.572;2023-08-01T05:05:17;98061.56;;;114.86;12.46
23643;BME280;11998;55.788;37.572;2023-08-01T05:06:18;98062.66;;;115.03;12.68
23643;BME280;11998;55.788;37.572;2023-08-01T05:07:18;98062.84;;;114.97;12.39
23643;BME280;11998;55.788;37.572;2023-08-01T05:08:19;98061.41;;;114.92;12.69
23643;BME280;11998;55.788;37.572;2023-08-01T05:09:19;98058.22;;;114.96;12.81
23643;BME280;11998;55.788;37.572;2023-08-01T05:10:20;98058.00;;;115.04;12.73
23643;BME280;11998;55.788;37.572;2023-08-01T05:11:20;98062.50;;;115.09;13.06
23643;BME280;11998;55.788;37.572;2023-08-01T05:12:21;98058.59;;;114.82;12.53
23643;BME280;11998;55.788;37.572;2023-08-01T05:13:22;98052.78;;;114.96;12.38
23643;BME280;11998;55.788;37.572;2023-08-01T05:14:22;98054.97;;;115.56;12.46
23643;BME280;11998;55.788;37.572;2023-08-01T05:15:23;98057.13;;;115.35;12.95
23643;BME280;11998;55.788;37.572;2023-08-01T05:16:23;98068.13;;;115.82;12.63